createdAt,value
2022-07-26T00:00:47.679Z,0
2022-07-26T00:01:47.760Z,0
2022-07-26T00:02:48.598Z,0
2022-07-26T00:03:47.651Z,0
2022-07-26T00:04:47.646Z,0
2022-07-26T00:05:47.664Z,0
2022-07-26T00:06:47.663Z,0
2022-07-26T00:07:47.668Z,0
2022-07-26T00:08:47.657Z,0
2022-07-26T00:09:48.447Z,0
2022-07-26T00:10:47.662Z,0
2022-07-26T00:11:47.669Z,0
2022-07-26T00:12:47.660Z,0
2022-07-26T00:13:47.668Z,0
2022-07-26T00:14:47.666Z,0
2022-07-26T00:15:47.674Z,0
2022-07-26T00:16:47.723Z,0
2022-07-26T00:17:47.667Z,0
2022-07-26T00:18:47.667Z,0
2022-07-26T00:19:47.670Z,0
2022-07-26T00:20:47.664Z,0
2022-07-26T00:21:47.669Z,0
2022-07-26T00:22:47.670Z,0
2022-07-26T00:23:47.671Z,0
2022-07-26T00:24:47.669Z,0
2022-07-26T00:25:47.671Z,0
2022-07-26T00:26:47.675Z,0
2022-07-26T00:27:47.681Z,0
2022-07-26T00:28:47.680Z,0
2022-07-26T00:29:47.680Z,0
2022-07-26T00:30:47.677Z,0
2022-07-26T00:31:47.787Z,0
2022-07-26T00:32:47.681Z,0
2022-07-26T00:33:47.685Z,0
2022-07-26T00:34:47.683Z,0
2022-07-26T00:35:47.689Z,0
2022-07-26T00:36:47.693Z,0
2022-07-26T00:37:47.688Z,0
2022-07-26T00:38:47.689Z,0
2022-07-26T00:39:47.689Z,0
2022-07-26T00:40:47.697Z,0
2022-07-26T00:41:47.688Z,0
2022-07-26T00:42:47.694Z,0
2022-07-26T00:43:47.701Z,0
2022-07-26T00:44:47.710Z,0
2022-07-26T00:45:47.749Z,0
2022-07-26T00:46:47.700Z,0
2022-07-26T00:47:47.708Z,0
2022-07-26T00:48:47.833Z,0
2022-07-26T00:49:47.706Z,0
2022-07-26T00:50:47.707Z,0
2022-07-26T00:51:47.722Z,0
2022-07-26T00:52:47.712Z,0
2022-07-26T00:53:47.713Z,0
2022-07-26T00:54:47.715Z,0
2022-07-26T00:55:47.722Z,0
2022-07-26T00:56:49.925Z,0
2022-07-26T00:57:47.712Z,0
2022-07-26T00:58:47.719Z,0
2022-07-26T00:59:47.718Z,0
2022-07-26T01:00:47.782Z,0
2022-07-26T01:01:47.865Z,0
2022-07-26T01:02:47.767Z,0
2022-07-26T01:03:47.721Z,0
2022-07-26T01:04:47.738Z,0
2022-07-26T01:05:47.734Z,0
2022-07-26T01:06:47.737Z,0
2022-07-26T01:07:47.735Z,0
2022-07-26T01:08:47.737Z,0
2022-07-26T01:09:47.742Z,0
2022-07-26T01:10:47.735Z,0
2022-07-26T01:11:47.742Z,0
2022-07-26T01:12:47.734Z,0
2022-07-26T01:13:47.744Z,0
2022-07-26T01:14:47.736Z,0
2022-07-26T01:15:47.777Z,0
2022-07-26T01:16:47.747Z,0
2022-07-26T01:17:47.743Z,0
2022-07-26T01:18:47.745Z,0
2022-07-26T01:19:47.738Z,0
2022-07-26T01:20:47.751Z,0
2022-07-26T01:21:47.748Z,0
2022-07-26T01:22:47.753Z,0
2022-07-26T01:23:47.748Z,0
2022-07-26T01:24:47.752Z,0
2022-07-26T01:25:48.239Z,0
2022-07-26T01:26:47.755Z,0
2022-07-26T01:27:47.753Z,0
2022-07-26T01:28:47.750Z,0
2022-07-26T01:29:47.755Z,0
2022-07-26T01:30:47.752Z,0
2022-07-26T01:31:47.816Z,0
2022-07-26T01:32:47.762Z,0
2022-07-26T01:33:47.762Z,0
2022-07-26T01:34:47.756Z,0
2022-07-26T01:35:47.765Z,0
2022-07-26T01:36:47.758Z,0
2022-07-26T01:37:47.760Z,0
2022-07-26T01:38:47.772Z,0
2022-07-26T01:39:47.773Z,0
2022-07-26T01:40:47.768Z,0
2022-07-26T01:41:47.776Z,0
2022-07-26T01:42:47.767Z,0
2022-07-26T01:43:47.773Z,0
2022-07-26T01:44:47.774Z,0
2022-07-26T01:45:47.857Z,0
2022-07-26T01:46:47.776Z,0
2022-07-26T01:47:47.772Z,0
2022-07-26T01:48:47.820Z,0
2022-07-26T01:49:47.777Z,0
2022-07-26T01:50:47.779Z,0
2022-07-26T01:51:47.779Z,0
2022-07-26T01:52:47.781Z,0
2022-07-26T01:53:47.772Z,0
2022-07-26T01:54:47.780Z,0
2022-07-26T01:55:47.784Z,0
2022-07-26T01:56:47.777Z,0
2022-07-26T01:57:47.785Z,0
2022-07-26T01:58:47.782Z,0
2022-07-26T01:59:47.788Z,0
2022-07-26T02:00:47.777Z,1
2022-07-26T02:01:47.931Z,0
2022-07-26T02:02:47.906Z,0
2022-07-26T02:03:47.791Z,0.7000000000000001
2022-07-26T02:04:47.807Z,0
2022-07-26T02:05:47.794Z,0
2022-07-26T02:06:47.790Z,0
2022-07-26T02:07:47.782Z,0.5
2022-07-26T02:08:47.794Z,2.5
2022-07-26T02:09:47.796Z,1.2000000000000002
2022-07-26T02:10:47.798Z,1.9000000000000001
2022-07-26T02:11:47.794Z,0
2022-07-26T02:12:47.795Z,0
2022-07-26T02:13:51.298Z,1.7000000000000002
2022-07-26T02:14:47.794Z,0
2022-07-26T02:15:47.849Z,0
2022-07-26T02:16:47.797Z,0
2022-07-26T02:17:47.798Z,0.8
2022-07-26T02:18:47.801Z,0.7000000000000001
2022-07-26T02:19:47.806Z,0
2022-07-26T02:20:47.801Z,0
2022-07-26T02:21:47.799Z,0
2022-07-26T02:22:47.798Z,0
2022-07-26T02:23:47.795Z,0
2022-07-26T02:24:47.808Z,0
2022-07-26T02:25:47.807Z,0
2022-07-26T02:26:47.799Z,0
2022-07-26T02:27:47.808Z,0
2022-07-26T02:28:47.808Z,0
2022-07-26T02:29:47.804Z,0
2022-07-26T02:30:47.852Z,0
2022-07-26T02:31:48.608Z,0
2022-07-26T02:32:47.805Z,0
2022-07-26T02:33:47.809Z,0
2022-07-26T02:34:47.805Z,0
2022-07-26T02:35:47.807Z,0
2022-07-26T02:36:47.804Z,0
2022-07-26T02:37:47.803Z,0
2022-07-26T02:38:47.805Z,0
2022-07-26T02:39:47.812Z,0
2022-07-26T02:40:47.805Z,0
2022-07-26T02:41:47.807Z,0
2022-07-26T02:42:47.809Z,0
2022-07-26T02:43:47.811Z,0
2022-07-26T02:44:47.802Z,0
2022-07-26T02:45:59.013Z,0
2022-07-26T02:46:47.897Z,0
2022-07-26T02:47:47.810Z,0
2022-07-26T02:48:47.888Z,0
2022-07-26T02:49:47.813Z,0
2022-07-26T02:50:47.815Z,0
2022-07-26T02:51:47.830Z,0
2022-07-26T02:52:47.809Z,0
2022-07-26T02:53:47.817Z,0
2022-07-26T02:54:47.831Z,0
2022-07-26T02:55:47.822Z,0
2022-07-26T02:56:47.818Z,0
2022-07-26T02:57:47.825Z,0
2022-07-26T02:58:47.832Z,0
2022-07-26T02:59:47.829Z,0
2022-07-26T03:00:47.836Z,0
2022-07-26T03:01:47.892Z,0
2022-07-26T03:02:47.936Z,0
2022-07-26T03:03:50.715Z,0
2022-07-26T03:04:47.840Z,0
2022-07-26T03:05:47.858Z,0
2022-07-26T03:06:47.842Z,0
2022-07-26T03:07:47.843Z,0
2022-07-26T03:08:47.851Z,0
2022-07-26T03:09:47.841Z,0
2022-07-26T03:10:47.845Z,0
2022-07-26T03:11:47.849Z,0
2022-07-26T03:12:47.847Z,0
2022-07-26T03:13:47.845Z,0
2022-07-26T03:14:47.848Z,0
2022-07-26T03:15:47.911Z,0
2022-07-26T03:16:47.850Z,0
2022-07-26T03:17:47.847Z,3.6
2022-07-26T03:18:47.851Z,0
2022-07-26T03:19:47.846Z,0
2022-07-26T03:20:47.857Z,0
2022-07-26T03:21:47.856Z,0
2022-07-26T03:22:47.858Z,0
2022-07-26T03:23:47.853Z,0
2022-07-26T03:24:47.859Z,0
2022-07-26T03:25:47.856Z,0
2022-07-26T03:26:47.859Z,0
2022-07-26T03:27:47.857Z,0
2022-07-26T03:28:47.864Z,0
2022-07-26T03:29:47.861Z,0
2022-07-26T03:30:47.984Z,0
2022-07-26T03:31:47.871Z,0
2022-07-26T03:32:47.871Z,0
2022-07-26T03:33:47.872Z,0
2022-07-26T03:34:47.884Z,0
2022-07-26T03:35:47.878Z,0
2022-07-26T03:36:47.887Z,0
2022-07-26T03:37:47.881Z,0
2022-07-26T03:38:47.882Z,0
2022-07-26T03:39:47.883Z,0
2022-07-26T03:40:47.897Z,0
2022-07-26T03:41:47.896Z,0
2022-07-26T03:42:47.887Z,0
2022-07-26T03:43:47.886Z,0
2022-07-26T03:44:47.894Z,0
2022-07-26T03:45:47.943Z,0
2022-07-26T03:46:47.904Z,0
2022-07-26T03:47:47.902Z,0
2022-07-26T03:48:47.940Z,0
2022-07-26T03:49:47.895Z,0
2022-07-26T03:50:47.900Z,3.3000000000000003
2022-07-26T03:51:47.898Z,2.2
2022-07-26T03:52:47.901Z,1.3
2022-07-26T03:53:47.893Z,4.6000000000000005
2022-07-26T03:54:47.907Z,0
2022-07-26T03:55:47.913Z,0
2022-07-26T03:56:47.903Z,5.800000000000001
2022-07-26T03:57:47.911Z,2.3000000000000003
2022-07-26T03:58:47.904Z,2.7
2022-07-26T03:59:47.907Z,3.6
2022-07-26T04:00:47.915Z,3.1
2022-07-26T04:01:47.955Z,0
2022-07-26T04:02:47.973Z,0
2022-07-26T04:03:48.089Z,0
2022-07-26T04:04:47.929Z,0
2022-07-26T04:05:48.727Z,0
2022-07-26T04:06:47.922Z,0
2022-07-26T04:07:52.907Z,0
2022-07-26T04:08:47.916Z,0
2022-07-26T04:09:47.924Z,0
2022-07-26T04:10:47.923Z,0
2022-07-26T04:11:47.929Z,0
2022-07-26T04:12:47.924Z,0
2022-07-26T04:13:47.930Z,0
2022-07-26T04:14:47.931Z,0
2022-07-26T04:15:47.925Z,0
2022-07-26T04:16:47.979Z,0
2022-07-26T04:17:47.931Z,0
2022-07-26T04:18:47.932Z,0
2022-07-26T04:19:47.920Z,0
2022-07-26T04:20:47.926Z,0
2022-07-26T04:21:47.929Z,0
2022-07-26T04:22:47.934Z,0
2022-07-26T04:23:51.250Z,0
2022-07-26T04:24:47.931Z,0
2022-07-26T04:25:47.928Z,0
2022-07-26T04:26:47.934Z,0
2022-07-26T04:27:47.936Z,0
2022-07-26T04:28:47.929Z,0
2022-07-26T04:29:47.934Z,0
2022-07-26T04:30:48.017Z,0
2022-07-26T04:31:47.932Z,0
2022-07-26T04:32:47.937Z,0
2022-07-26T04:33:47.944Z,0
2022-07-26T04:34:47.940Z,0
2022-07-26T04:35:47.942Z,0
2022-07-26T04:36:47.936Z,0
2022-07-26T04:37:47.946Z,0
2022-07-26T04:38:47.951Z,0
2022-07-26T04:39:51.722Z,0
2022-07-26T04:40:47.945Z,0
2022-07-26T04:41:47.957Z,0
2022-07-26T04:42:47.950Z,0
2022-07-26T04:43:47.955Z,0
2022-07-26T04:44:47.952Z,0
2022-07-26T04:45:48.013Z,0
2022-07-26T04:46:47.950Z,0
2022-07-26T04:47:49.189Z,0
2022-07-26T04:48:48.025Z,0
2022-07-26T04:49:47.959Z,0
2022-07-26T04:50:47.958Z,0
2022-07-26T04:51:47.970Z,0
2022-07-26T04:52:47.974Z,0
2022-07-26T04:53:47.965Z,0
2022-07-26T04:54:47.962Z,0
2022-07-26T04:55:47.968Z,0
2022-07-26T04:56:47.966Z,0
2022-07-26T04:57:48.013Z,0
2022-07-26T04:58:47.962Z,0
2022-07-26T04:59:58.300Z,3.3000000000000003
2022-07-26T05:01:08.820Z,2.9000000000000004
2022-07-26T05:01:48.013Z,0
2022-07-26T05:02:48.011Z,0
2022-07-26T05:03:47.964Z,0
2022-07-26T05:04:47.962Z,0
2022-07-26T05:05:47.983Z,0
2022-07-26T05:06:47.970Z,0
2022-07-26T05:07:47.978Z,0
2022-07-26T05:08:47.965Z,0
2022-07-26T05:09:47.969Z,0
2022-07-26T05:10:53.097Z,0
2022-07-26T05:11:47.975Z,0
2022-07-26T05:12:47.974Z,0
2022-07-26T05:13:47.978Z,0
2022-07-26T05:14:47.977Z,0
2022-07-26T05:15:47.976Z,0
2022-07-26T05:16:47.984Z,0
2022-07-26T05:17:47.979Z,0
2022-07-26T05:18:49.028Z,0
2022-07-26T05:19:49.235Z,0
2022-07-26T05:20:47.981Z,0
2022-07-26T05:21:47.974Z,0
2022-07-26T05:22:47.978Z,0
2022-07-26T05:23:47.977Z,0
2022-07-26T05:24:47.976Z,0
2022-07-26T05:25:47.987Z,0
2022-07-26T05:26:47.987Z,0
2022-07-26T05:27:47.987Z,0
2022-07-26T05:28:47.980Z,0
2022-07-26T05:29:47.988Z,0
2022-07-26T05:30:48.019Z,0
2022-07-26T05:31:47.991Z,0
2022-07-26T05:32:47.988Z,0
2022-07-26T05:33:47.995Z,0
2022-07-26T05:34:48.004Z,0
2022-07-26T05:35:47.997Z,0
2022-07-26T05:36:47.993Z,0
2022-07-26T05:37:47.993Z,0
2022-07-26T05:38:47.994Z,0
2022-07-26T05:39:48.002Z,0
2022-07-26T05:40:50.613Z,0
2022-07-26T05:41:48.005Z,0
2022-07-26T05:42:48.009Z,0
2022-07-26T05:43:47.992Z,0
2022-07-26T05:44:47.996Z,0
2022-07-26T05:45:48.069Z,0
2022-07-26T05:46:48.002Z,0
2022-07-26T05:47:48.003Z,0
2022-07-26T05:48:48.068Z,0
2022-07-26T05:49:48.003Z,0
2022-07-26T05:50:47.995Z,0
2022-07-26T05:51:47.998Z,0
2022-07-26T05:52:48.005Z,0
2022-07-26T05:53:47.997Z,0
2022-07-26T05:54:47.999Z,0
2022-07-26T05:55:48.004Z,0
2022-07-26T05:56:48.009Z,0
2022-07-26T05:57:49.590Z,0
2022-07-26T05:58:48.005Z,3
2022-07-26T05:59:48.010Z,2.5
2022-07-26T06:00:48.642Z,0
2022-07-26T06:01:48.005Z,0
2022-07-26T06:02:48.108Z,0
2022-07-26T06:03:48.042Z,0
2022-07-26T06:04:48.027Z,0
2022-07-26T06:05:48.002Z,0
2022-07-26T06:06:48.012Z,0
2022-07-26T06:07:48.013Z,0
2022-07-26T06:08:48.016Z,0
2022-07-26T06:09:48.022Z,0
2022-07-26T06:10:48.012Z,0
2022-07-26T06:11:48.007Z,0
2022-07-26T06:12:48.008Z,0
2022-07-26T06:13:48.007Z,0
2022-07-26T06:14:48.016Z,0
2022-07-26T06:15:48.018Z,0
2022-07-26T06:16:48.105Z,0
2022-07-26T06:17:48.019Z,0
2022-07-26T06:18:48.018Z,0
2022-07-26T06:19:48.401Z,0
2022-07-26T06:20:48.010Z,0
2022-07-26T06:21:48.021Z,0
2022-07-26T06:22:48.020Z,0
2022-07-26T06:23:48.026Z,0
2022-07-26T06:24:48.022Z,0
2022-07-26T06:25:48.022Z,0
2022-07-26T06:26:48.020Z,0
2022-07-26T06:27:48.025Z,0
2022-07-26T06:28:48.021Z,5.1000000000000005
2022-07-26T06:29:48.020Z,3.7
2022-07-26T06:30:48.022Z,3
2022-07-26T06:31:48.076Z,0
2022-07-26T06:32:48.027Z,0
2022-07-26T06:33:48.027Z,0
2022-07-26T06:34:48.033Z,0
2022-07-26T06:35:48.017Z,0
2022-07-26T06:36:48.020Z,0
2022-07-26T06:37:48.024Z,0
2022-07-26T06:38:48.444Z,0
2022-07-26T06:39:48.026Z,0
2022-07-26T06:40:48.029Z,0
2022-07-26T06:41:48.027Z,0
2022-07-26T06:42:48.021Z,0
2022-07-26T06:43:48.027Z,0
2022-07-26T06:44:48.026Z,0
2022-07-26T06:45:48.063Z,0
2022-07-26T06:46:48.038Z,0
2022-07-26T06:47:48.020Z,0
2022-07-26T06:48:52.382Z,0
2022-07-26T06:49:48.032Z,0
2022-07-26T06:50:48.034Z,0
2022-07-26T06:51:48.034Z,0
2022-07-26T06:52:48.115Z,0
2022-07-26T06:53:48.045Z,0
2022-07-26T06:54:48.035Z,0
2022-07-26T06:55:48.040Z,0
2022-07-26T06:56:48.044Z,0
2022-07-26T06:57:50.219Z,0
2022-07-26T06:58:48.036Z,0
2022-07-26T06:59:48.039Z,0
2022-07-26T07:00:48.107Z,0
2022-07-26T07:01:52.221Z,0
2022-07-26T07:02:48.035Z,0
2022-07-26T07:03:48.037Z,0
2022-07-26T07:04:48.120Z,0
2022-07-26T07:05:50.137Z,0
2022-07-26T07:06:48.038Z,0
2022-07-26T07:07:48.116Z,0
2022-07-26T07:08:48.046Z,0
2022-07-26T07:09:48.027Z,0
2022-07-26T07:10:48.039Z,0
2022-07-26T07:11:48.414Z,0
2022-07-26T07:12:48.045Z,0
2022-07-26T07:13:48.049Z,0
2022-07-26T07:14:48.042Z,0
2022-07-26T07:15:48.037Z,0
2022-07-26T07:16:48.103Z,0
2022-07-26T07:17:48.043Z,0
2022-07-26T07:18:48.037Z,0
2022-07-26T07:19:48.044Z,0
2022-07-26T07:20:48.042Z,0
2022-07-26T07:21:48.041Z,0
2022-07-26T07:22:48.053Z,0
2022-07-26T07:23:48.052Z,0
2022-07-26T07:24:48.041Z,0
2022-07-26T07:25:48.824Z,0
2022-07-26T07:26:48.065Z,0
2022-07-26T07:27:48.052Z,0
2022-07-26T07:28:48.501Z,0
2022-07-26T07:29:48.065Z,0
2022-07-26T07:30:48.135Z,0
2022-07-26T07:31:49.549Z,0
2022-07-26T07:32:48.063Z,0
2022-07-26T07:33:52.997Z,0
2022-07-26T07:34:48.070Z,0
2022-07-26T07:35:48.069Z,0
2022-07-26T07:36:48.072Z,0
2022-07-26T07:37:53.288Z,0
2022-07-26T07:38:48.068Z,0
2022-07-26T07:39:48.656Z,0
2022-07-26T07:40:48.071Z,0
2022-07-26T07:41:48.087Z,0
2022-07-26T07:42:48.084Z,0
2022-07-26T07:43:48.083Z,0
2022-07-26T07:44:48.099Z,0
2022-07-26T07:45:48.112Z,0
2022-07-26T07:46:48.133Z,0
2022-07-26T07:47:48.085Z,0
2022-07-26T07:48:48.178Z,0
2022-07-26T07:49:48.096Z,0
2022-07-26T07:50:48.093Z,0
2022-07-26T07:51:48.098Z,0
2022-07-26T07:52:48.093Z,0
2022-07-26T07:53:56.880Z,0
2022-07-26T07:54:48.097Z,3.3000000000000003
2022-07-26T07:55:48.090Z,3.1
2022-07-26T07:56:48.081Z,1.8
2022-07-26T07:57:48.094Z,0
2022-07-26T07:58:48.092Z,0
2022-07-26T07:59:48.097Z,0
2022-07-26T08:00:48.417Z,0
2022-07-26T08:01:48.133Z,0
2022-07-26T08:02:48.101Z,0
2022-07-26T08:03:50.141Z,0
2022-07-26T08:04:48.179Z,0
2022-07-26T08:05:49.499Z,0
2022-07-26T08:06:50.476Z,0
2022-07-26T08:07:48.103Z,0
2022-07-26T08:08:48.510Z,0
2022-07-26T08:09:48.100Z,0
2022-07-26T08:10:49.056Z,0
2022-07-26T08:11:50.575Z,0
2022-07-26T08:12:51.384Z,0
2022-07-26T08:13:48.327Z,0
2022-07-26T08:14:48.114Z,0
2022-07-26T08:15:48.116Z,0
2022-07-26T08:16:48.174Z,0
2022-07-26T08:17:51.288Z,0
2022-07-26T08:18:56.493Z,0
2022-07-26T08:19:48.123Z,0
2022-07-26T08:20:48.123Z,0
2022-07-26T08:21:48.129Z,0
2022-07-26T08:22:48.129Z,0
2022-07-26T08:23:48.124Z,0
2022-07-26T08:24:48.131Z,0
2022-07-26T08:25:55.940Z,0
2022-07-26T08:26:48.133Z,0
2022-07-26T08:28:03.063Z,0
2022-07-26T08:28:48.643Z,0
2022-07-26T08:29:48.142Z,0
2022-07-26T08:30:48.134Z,0
2022-07-26T08:31:48.150Z,0
2022-07-26T08:32:48.138Z,0
2022-07-26T08:33:48.136Z,0
2022-07-26T08:34:48.132Z,0
2022-07-26T08:35:48.135Z,0
2022-07-26T08:37:07.169Z,0
2022-07-26T08:37:48.143Z,0
2022-07-26T08:38:48.475Z,0
2022-07-26T08:39:48.138Z,0
2022-07-26T08:40:48.143Z,0
2022-07-26T08:41:48.138Z,0
2022-07-26T08:42:52.107Z,0
2022-07-26T08:43:51.466Z,0
2022-07-26T08:44:48.140Z,0
2022-07-26T08:45:48.150Z,0
2022-07-26T08:46:48.168Z,1.7000000000000002
2022-07-26T08:48:07.749Z,3.8000000000000003
2022-07-26T08:48:48.190Z,4.3
2022-07-26T08:49:48.152Z,3
2022-07-26T08:50:48.153Z,1.8
2022-07-26T08:51:48.159Z,0.8
2022-07-26T08:52:48.157Z,5.2
2022-07-26T08:53:48.159Z,2.4000000000000004
2022-07-26T08:54:48.162Z,2.9000000000000004
2022-07-26T08:56:06.253Z,0
2022-07-26T08:56:48.164Z,0
2022-07-26T08:57:48.166Z,0
2022-07-26T08:58:48.173Z,0
2022-07-26T08:59:48.165Z,0
2022-07-26T09:00:48.218Z,0
2022-07-26T09:01:48.175Z,0
2022-07-26T09:02:48.171Z,0
2022-07-26T09:03:48.211Z,0
2022-07-26T09:04:48.211Z,0
2022-07-26T09:05:48.171Z,0
2022-07-26T09:06:48.180Z,0
2022-07-26T09:07:48.178Z,0
2022-07-26T09:08:48.177Z,0
2022-07-26T09:09:48.179Z,0
2022-07-26T09:10:48.182Z,0
2022-07-26T09:11:48.193Z,0
2022-07-26T09:12:48.179Z,0
2022-07-26T09:13:48.180Z,0
2022-07-26T09:14:48.183Z,0
2022-07-26T09:15:48.248Z,0
2022-07-26T09:16:48.194Z,0
2022-07-26T09:17:48.189Z,0
2022-07-26T09:18:48.197Z,0
2022-07-26T09:19:48.195Z,0
2022-07-26T09:20:48.199Z,0
2022-07-26T09:21:48.200Z,0
2022-07-26T09:22:48.197Z,0
2022-07-26T09:23:48.207Z,0
2022-07-26T09:24:48.199Z,0
2022-07-26T09:25:48.193Z,0
2022-07-26T09:26:48.204Z,0
2022-07-26T09:27:48.206Z,0
2022-07-26T09:28:48.201Z,0
2022-07-26T09:29:48.212Z,0
2022-07-26T09:30:48.216Z,0
2022-07-26T09:31:48.256Z,0
2022-07-26T09:32:48.204Z,0
2022-07-26T09:33:48.219Z,0
2022-07-26T09:34:52.882Z,0
2022-07-26T09:35:50.280Z,0
2022-07-26T09:36:48.221Z,0
2022-07-26T09:37:48.215Z,0
2022-07-26T09:38:48.218Z,0
2022-07-26T09:39:48.225Z,0
2022-07-26T09:40:51.231Z,0
2022-07-26T09:41:59.843Z,0
2022-07-26T09:42:48.225Z,0
2022-07-26T09:43:53.313Z,0
2022-07-26T09:44:48.341Z,4
2022-07-26T09:45:48.224Z,2.7
2022-07-26T09:46:48.264Z,5.300000000000001
2022-07-26T09:47:48.227Z,6.2
2022-07-26T09:49:48.255Z,2.7
2022-07-26T09:50:48.235Z,3.7
2022-07-26T09:51:48.228Z,3.2
2022-07-26T09:52:48.230Z,4.9
2022-07-26T09:53:48.236Z,4.6000000000000005
2022-07-26T09:54:48.233Z,1.3
2022-07-26T09:55:48.237Z,0
2022-07-26T09:56:48.243Z,1.8
2022-07-26T09:57:48.237Z,3
2022-07-26T09:58:48.232Z,0
2022-07-26T09:59:48.244Z,0
2022-07-26T10:00:48.246Z,3.4000000000000004
2022-07-26T10:01:48.333Z,3
2022-07-26T10:02:48.290Z,2.3000000000000003
2022-07-26T10:03:48.243Z,0
2022-07-26T10:04:48.239Z,2.2
2022-07-26T10:05:48.260Z,3.9000000000000004
2022-07-26T10:06:48.243Z,1.6
2022-07-26T10:07:48.249Z,2
2022-07-26T10:08:48.255Z,4.5
2022-07-26T10:09:48.628Z,3
2022-07-26T10:10:48.257Z,3.9000000000000004
2022-07-26T10:11:48.257Z,3.3000000000000003
2022-07-26T10:12:48.261Z,4.3
2022-07-26T10:13:48.267Z,2.6
2022-07-26T10:14:48.267Z,2.5
2022-07-26T10:15:48.339Z,0
2022-07-26T10:16:48.270Z,2.6
2022-07-26T10:17:49.447Z,5.5
2022-07-26T10:18:49.171Z,4.2
2022-07-26T10:19:48.266Z,1.6
2022-07-26T10:20:48.283Z,1.8
2022-07-26T10:21:48.270Z,2.7
2022-07-26T10:22:48.267Z,0
2022-07-26T10:23:48.282Z,0
2022-07-26T10:24:48.273Z,4.7
2022-07-26T10:25:48.270Z,2.2
2022-07-26T10:26:48.276Z,0
2022-07-26T10:27:48.277Z,0
2022-07-26T10:28:48.275Z,0
2022-07-26T10:29:48.280Z,0
2022-07-26T10:30:48.283Z,0
2022-07-26T10:31:48.352Z,5.1000000000000005
2022-07-26T10:32:48.282Z,4.800000000000001
2022-07-26T10:33:48.282Z,5
2022-07-26T10:34:48.280Z,0
2022-07-26T10:35:48.280Z,0
2022-07-26T10:36:48.280Z,3.2
2022-07-26T10:37:48.284Z,5.6000000000000005
2022-07-26T10:38:48.280Z,6.2
2022-07-26T10:39:48.281Z,7.5
2022-07-26T10:40:48.284Z,3.2
2022-07-26T10:41:48.284Z,4.5
2022-07-26T10:42:48.285Z,0.9
2022-07-26T10:43:48.277Z,0
2022-07-26T10:44:48.282Z,5.5
2022-07-26T10:45:49.463Z,3.4000000000000004
2022-07-26T10:46:48.353Z,1.3
2022-07-26T10:47:48.293Z,3.8000000000000003
2022-07-26T10:48:48.360Z,2.4000000000000004
2022-07-26T10:49:48.295Z,0
2022-07-26T10:50:48.296Z,1.6
2022-07-26T10:51:48.292Z,0
2022-07-26T10:52:48.296Z,0
2022-07-26T10:53:48.295Z,0
2022-07-26T10:54:48.299Z,2.6
2022-07-26T10:55:48.293Z,2.9000000000000004
2022-07-26T10:56:48.294Z,5.5
2022-07-26T10:57:48.304Z,2.3000000000000003
2022-07-26T10:58:48.300Z,0
2022-07-26T10:59:55.668Z,0
2022-07-26T11:00:48.297Z,8.9
2022-07-26T11:01:48.335Z,3.2
2022-07-26T11:02:48.364Z,4.3
2022-07-26T11:03:48.299Z,3.7
2022-07-26T11:04:48.313Z,2.7
2022-07-26T11:05:48.307Z,0
2022-07-26T11:06:48.314Z,0.6000000000000001
2022-07-26T11:07:48.316Z,1.1
2022-07-26T11:08:48.592Z,6
2022-07-26T11:09:48.316Z,3.3000000000000003
2022-07-26T11:10:48.314Z,7.5
2022-07-26T11:11:48.311Z,3.5
2022-07-26T11:12:48.306Z,1
2022-07-26T11:13:48.319Z,6.1000000000000005
2022-07-26T11:14:48.632Z,2.8000000000000003
2022-07-26T11:15:48.372Z,1.5
2022-07-26T11:16:48.311Z,2.3000000000000003
2022-07-26T11:17:48.310Z,1.7000000000000002
2022-07-26T11:18:48.315Z,5.300000000000001
2022-07-26T11:19:48.315Z,2
2022-07-26T11:20:48.315Z,5.4
2022-07-26T11:21:48.314Z,4.7
2022-07-26T11:22:48.307Z,6.4
2022-07-26T11:23:48.316Z,1.5
2022-07-26T11:24:48.317Z,3.3000000000000003
2022-07-26T11:25:48.323Z,5.9
2022-07-26T11:26:48.308Z,4
2022-07-26T11:27:48.319Z,0.9
2022-07-26T11:28:48.316Z,0
2022-07-26T11:29:49.312Z,0
2022-07-26T11:30:48.342Z,3.5
2022-07-26T11:31:49.902Z,0
2022-07-26T11:32:48.324Z,1.4000000000000001
2022-07-26T11:33:48.322Z,3.5
2022-07-26T11:34:48.313Z,3.2
2022-07-26T11:35:48.318Z,0
2022-07-26T11:36:48.329Z,7.300000000000001
2022-07-26T11:37:48.321Z,7.800000000000001
2022-07-26T11:38:48.318Z,7.9
2022-07-26T11:39:48.325Z,9.200000000000001
2022-07-26T11:40:48.312Z,5.5
2022-07-26T11:41:48.326Z,3.9000000000000004
2022-07-26T11:42:48.325Z,2.5
2022-07-26T11:43:48.328Z,1.3
2022-07-26T11:44:48.317Z,4.9
2022-07-26T11:45:48.358Z,9.4
2022-07-26T11:46:48.409Z,4.2
2022-07-26T11:47:48.322Z,1.5
2022-07-26T11:48:48.338Z,3.8000000000000003
2022-07-26T11:49:49.027Z,4.7
2022-07-26T11:50:48.315Z,6.1000000000000005
2022-07-26T11:51:48.329Z,4.4
2022-07-26T11:52:48.335Z,3.4000000000000004
2022-07-26T11:53:48.332Z,0
2022-07-26T11:54:48.331Z,0
2022-07-26T11:55:48.340Z,2.9000000000000004
2022-07-26T11:56:48.329Z,5
2022-07-26T11:57:48.336Z,5.9
2022-07-26T11:58:48.330Z,5.5
2022-07-26T11:59:48.335Z,2.7
2022-07-26T12:00:48.327Z,0
2022-07-26T12:01:48.847Z,0
2022-07-26T12:02:51.415Z,9.4
2022-07-26T12:03:48.370Z,7.9
2022-07-26T12:04:48.433Z,6.7
2022-07-26T12:05:48.385Z,6.9
2022-07-26T12:06:48.336Z,2.4000000000000004
2022-07-26T12:07:48.332Z,3.4000000000000004
2022-07-26T12:08:51.559Z,5.300000000000001
2022-07-26T12:09:48.348Z,3.4000000000000004
2022-07-26T12:10:48.339Z,7
2022-07-26T12:11:48.356Z,6.7
2022-07-26T12:12:48.343Z,4.3
2022-07-26T12:13:55.540Z,3.2
2022-07-26T12:14:48.358Z,3.7
2022-07-26T12:15:48.536Z,3.5
2022-07-26T12:16:48.373Z,4.7
2022-07-26T12:17:48.347Z,4.5
2022-07-26T12:18:48.363Z,4.800000000000001
2022-07-26T12:19:48.362Z,5.7
2022-07-26T12:20:50.649Z,6.9
2022-07-26T12:21:48.374Z,6.2
2022-07-26T12:22:48.361Z,7.2
2022-07-26T12:23:48.766Z,8.1
2022-07-26T12:24:48.370Z,6.300000000000001
2022-07-26T12:25:49.182Z,4
2022-07-26T12:26:48.391Z,6.800000000000001
2022-07-26T12:27:48.370Z,5.7
2022-07-26T12:28:48.391Z,2
2022-07-26T12:29:48.371Z,4.5
2022-07-26T12:30:48.451Z,0
2022-07-26T12:31:48.366Z,0
2022-07-26T12:32:48.372Z,0.8
2022-07-26T12:33:48.376Z,4.9
2022-07-26T12:34:48.376Z,3
2022-07-26T12:35:48.378Z,9.200000000000001
2022-07-26T12:36:48.515Z,5.2
2022-07-26T12:37:48.380Z,11.5
2022-07-26T12:38:48.372Z,4.7
2022-07-26T12:39:48.383Z,7.2
2022-07-26T12:40:48.392Z,6.5
2022-07-26T12:41:48.390Z,6
2022-07-26T12:42:48.386Z,10.5
2022-07-26T12:43:49.107Z,8.6
2022-07-26T12:44:48.386Z,7.1000000000000005
2022-07-26T12:45:48.432Z,9.3
2022-07-26T12:46:48.420Z,8.5
2022-07-26T12:47:48.390Z,13.8
2022-07-26T12:48:48.436Z,12.9
2022-07-26T12:49:48.387Z,10.3
2022-07-26T12:50:48.388Z,9.5
2022-07-26T12:51:48.398Z,8.700000000000001
2022-07-26T12:52:48.396Z,12.200000000000001
2022-07-26T12:53:48.388Z,14.4
2022-07-26T12:54:48.398Z,13.5
2022-07-26T12:55:48.394Z,15.700000000000001
2022-07-26T12:56:48.795Z,15.3
2022-07-26T12:57:48.403Z,15.5
2022-07-26T12:58:48.398Z,16.2
2022-07-26T12:59:48.407Z,14.9
2022-07-26T13:00:48.400Z,15.5
2022-07-26T13:01:48.442Z,12.700000000000001
2022-07-26T13:02:48.405Z,20
2022-07-26T13:03:48.410Z,18.2
2022-07-26T13:04:48.446Z,12.600000000000001
2022-07-26T13:05:48.406Z,24.8
2022-07-26T13:06:48.951Z,22
2022-07-26T13:07:48.408Z,18
2022-07-26T13:08:48.411Z,8.6
2022-07-26T13:09:48.408Z,9.4
2022-07-26T13:10:48.416Z,13.600000000000001
2022-07-26T13:11:48.408Z,15.3
2022-07-26T13:12:48.415Z,15
2022-07-26T13:13:48.407Z,4.7
2022-07-26T13:14:48.420Z,11
2022-07-26T13:15:48.415Z,10.3
2022-07-26T13:16:48.492Z,13.600000000000001
2022-07-26T13:17:48.411Z,13
2022-07-26T13:18:48.414Z,8.8
2022-07-26T13:19:48.418Z,15.5
2022-07-26T13:20:48.421Z,21
2022-07-26T13:21:52.721Z,14.9
2022-07-26T13:22:48.425Z,8.700000000000001
2022-07-26T13:23:48.426Z,12.200000000000001
2022-07-26T13:24:48.421Z,5.9
2022-07-26T13:25:48.424Z,8
2022-07-26T13:26:48.422Z,12.5
2022-07-26T13:27:48.426Z,9.600000000000001
2022-07-26T13:28:49.870Z,13.5
2022-07-26T13:29:48.425Z,15.4
2022-07-26T13:30:48.517Z,11.700000000000001
2022-07-26T13:31:48.427Z,7.300000000000001
2022-07-26T13:32:48.433Z,5.9
2022-07-26T13:33:48.427Z,9.3
2022-07-26T13:34:48.434Z,4.6000000000000005
2022-07-26T13:35:50.110Z,7.9
2022-07-26T13:36:48.435Z,5.5
2022-07-26T13:37:48.438Z,7.800000000000001
2022-07-26T13:38:48.441Z,11
2022-07-26T13:39:48.436Z,12.8
2022-07-26T13:40:48.441Z,6.800000000000001
2022-07-26T13:41:48.442Z,6.4
2022-07-26T13:42:48.447Z,6.4
2022-07-26T13:43:48.438Z,8.4
2022-07-26T13:44:48.453Z,9.700000000000001
2022-07-26T13:45:48.485Z,9.8
2022-07-26T13:46:48.504Z,6.5
2022-07-26T13:47:48.455Z,3.9000000000000004
2022-07-26T13:49:00.387Z,6.5
2022-07-26T13:49:48.518Z,12.700000000000001